Time;durP1;ratioP1;P1;durP2;ratioP2;P2;SDS_P1;SDS_P2;PMS_P1;PMS_P2;Temp;Humidity;BMP_temperature;BMP_pressure;BME280_temperature;BME280_humidity;BME280_pressure;Samples;Min_cycle;Max_cycle;Signal;HPM_P1;HPM_P2
2022/11/07 00:01:47;;;;;;;0.15;0.10;;;9.20;99.90;;;;;;5051882;28;20194;-67
2022/11/07 00:04:14;;;;;;;0.00;0.00;;;9.20;99.90;;;;;;5051839;28;20264;-68
2022/11/07 00:06:39;;;;;;;0.00;0.00;;;9.20;99.90;;;;;;5051347;28;20697;-67
2022/11/07 00:09:05;;;;;;;0.00;0.00;;;9.20;99.90;;;;;;5049755;28;20189;-67
2022/11/07 00:11:30;;;;;;;0.00;0.00;;;9.30;99.90;;;;;;5051249;28;20247;-67
2022/11/07 00:13:56;;;;;;;0.00;0.00;;;9.30;99.90;;;;;;5050629;28;20193;-68
2022/11/07 00:16:21;;;;;;;0.00;0.00;;;9.30;99.90;;;;;;5051349;28;20189;-67
2022/11/07 00:18:47;;;;;;;0.00;0.00;;;9.30;99.90;;;;;;5051819;28;20450;-68
2022/11/07 00:21:13;;;;;;;0.00;0.00;;;9.30;99.90;;;;;;5051189;28;20184;-68
2022/11/07 00:23:40;;;;;;;0.00;0.00;;;9.40;99.90;;;;;;5051891;28;20185;-68
2022/11/07 00:26:08;;;;;;;0.00;0.00;;;9.40;99.90;;;;;;5051403;28;20173;-68
2022/11/07 00:28:38;;;;;;;0.00;0.00;;;9.40;99.90;;;;;;5050616;28;20197;-68
2022/11/07 00:31:05;;;;;;;0.00;0.00;;;9.40;99.90;;;;;;5051292;28;20217;-68
2022/11/07 00:33:31;;;;;;;0.00;0.00;;;9.40;99.90;;;;;;5041149;28;20185;-68
2022/11/07 00:35:57;;;;;;;0.00;0.00;;;9.50;99.90;;;;;;5051567;28;20262;-67
2022/11/07 00:38:22;;;;;;;0.00;0.00;;;9.50;99.90;;;;;;5050160;28;20304;-68
2022/11/07 00:40:59;;;;;;;0.00;0.00;;;9.50;99.90;;;;;;5051222;28;20264;-68
2022/11/07 00:43:25;;;;;;;0.00;0.00;;;9.50;99.90;;;;;;5051078;28;20586;-67
2022/11/07 00:45:51;;;;;;;0.00;0.00;;;9.50;99.90;;;;;;5051116;28;20178;-68
2022/11/07 00:48:17;;;;;;;0.00;0.00;;;9.50;99.90;;;;;;5051073;28;20220;-68
2022/11/07 00:50:43;;;;;;;0.00;0.00;;;9.60;99.90;;;;;;5051381;28;20527;-68
2022/11/07 00:53:08;;;;;;;0.00;0.00;;;9.60;99.90;;;;;;5050162;28;20189;-67
2022/11/07 00:55:34;;;;;;;0.00;0.00;;;9.60;99.90;;;;;;5051645;28;20265;-68
2022/11/07 00:57:59;;;;;;;0.00;0.00;;;9.60;99.90;;;;;;5051268;28;20185;-67
2022/11/07 01:00:25;;;;;;;0.00;0.00;;;9.70;99.90;;;;;;5051204;28;20193;-68
2022/11/07 01:05:09;;;;;;;0.00;0.00;;;9.70;99.90;;;;;;5051374;28;20182;-68
2022/11/07 01:05:37;;;;;;;0.00;0.00;;;9.70;99.90;;;;;;5051029;28;20192;-68
2022/11/07 01:08:03;;;;;;;0.00;0.00;;;9.70;99.90;;;;;;5051254;28;20221;-68
2022/11/07 01:10:29;;;;;;;0.00;0.00;;;9.70;99.90;;;;;;5051171;28;20602;-68
2022/11/07 01:12:54;;;;;;;0.00;0.00;;;9.70;99.90;;;;;;5051223;28;20192;-69
2022/11/07 01:15:20;;;;;;;0.00;0.00;;;9.70;99.90;;;;;;5051069;28;20185;-68
2022/11/07 01:17:45;;;;;;;0.00;0.00;;;9.70;99.90;;;;;;5051384;28;20215;-68
2022/11/07 01:20:11;;;;;;;0.00;0.00;;;9.70;99.90;;;;;;5051095;28;20690;-68
2022/11/07 01:22:37;;;;;;;0.10;0.10;;;9.70;99.90;;;;;;5051277;28;20212;-68
2022/11/07 01:25:03;;;;;;;0.00;0.00;;;9.70;99.90;;;;;;5051349;28;20260;-69
2022/11/07 01:27:29;;;;;;;0.00;0.00;;;9.80;99.90;;;;;;5051069;28;20182;-68
2022/11/07 01:29:55;;;;;;;0.00;0.00;;;9.80;99.90;;;;;;5051609;28;20170;-68
2022/11/07 01:32:20;;;;;;;0.00;0.00;;;9.80;99.90;;;;;;5052921;28;20236;-69
2022/11/07 01:34:46;;;;;;;0.00;0.00;;;9.80;99.90;;;;;;5054847;28;20186;-68
2022/11/07 01:37:12;;;;;;;0.00;0.00;;;9.90;99.90;;;;;;5054466;28;20185;-69
2022/11/07 01:39:37;;;;;;;0.00;0.00;;;9.90;99.90;;;;;;5054555;28;20209;-68
2022/11/07 01:42:03;;;;;;;0.00;0.00;;;9.90;99.90;;;;;;5054070;28;20174;-68
2022/11/07 01:44:41;;;;;;;0.13;0.13;;;9.90;99.90;;;;;;5054757;28;20656;-68
2022/11/07 01:47:08;;;;;;;0.03;0.03;;;9.90;99.90;;;;;;5054196;28;20184;-68
2022/11/07 01:49:37;;;;;;;0.00;0.00;;;9.90;99.90;;;;;;5054190;28;20205;-68
2022/11/07 01:52:15;;;;;;;0.00;0.00;;;9.90;99.90;;;;;;5054207;28;20327;-68
2022/11/07 01:54:49;;;;;;;0.00;0.00;;;9.90;99.90;;;;;;5054347;28;20261;-68
2022/11/07 01:57:41;;;;;;;0.00;0.00;;;9.90;99.90;;;;;;5053694;28;20177;-68
2022/11/07 02:00:10;;;;;;;0.00;0.00;;;10.00;99.90;;;;;;5054360;28;20177;-68
2022/11/07 02:02:36;;;;;;;0.00;0.00;;;10.00;99.90;;;;;;5054378;28;20185;-68
2022/11/07 02:05:04;;;;;;;0.00;0.00;;;10.00;99.90;;;;;;5054012;28;20185;-68
2022/11/07 02:07:30;;;;;;;0.00;0.00;;;10.10;99.90;;;;;;5053415;28;20355;-68
2022/11/07 02:09:56;;;;;;;0.00;0.00;;;10.10;99.90;;;;;;5054238;28;20276;-68
2022/11/07 02:12:24;;;;;;;0.00;0.00;;;10.10;99.90;;;;;;5053612;28;20583;-68
2022/11/07 02:14:50;;;;;;;0.00;0.00;;;10.10;99.90;;;;;;5054149;28;20182;-68
2022/11/07 02:17:17;;;;;;;0.00;0.00;;;10.10;99.90;;;;;;5053751;28;20189;-68
2022/11/07 02:19:46;;;;;;;0.00;0.00;;;10.20;99.90;;;;;;5054047;28;20236;-68
2022/11/07 02:22:38;;;;;;;0.00;0.00;;;10.10;99.90;;;;;;5053141;28;20181;-68
2022/11/07 02:25:08;;;;;;;0.00;0.00;;;10.20;99.90;;;;;;5053670;28;20189;-68
2022/11/07 02:27:35;;;;;;;0.00;0.00;;;10.20;99.90;;;;;;5053666;28;20180;-68
2022/11/07 02:30:05;;;;;;;0.00;0.00;;;10.20;99.90;;;;;;5053436;28;20177;-67
2022/11/07 02:32:31;;;;;;;0.00;0.00;;;10.20;99.90;;;;;;5053647;28;20220;-68
2022/11/07 02:35:02;;;;;;;0.00;0.00;;;10.20;99.90;;;;;;5053872;28;20177;-67
2022/11/07 02:37:37;;;;;;;0.00;0.00;;;10.20;99.90;;;;;;5053291;28;20532;-68
2022/11/07 02:40:07;;;;;;;0.00;0.00;;;10.20;99.90;;;;;;5053031;28;20530;-68
2022/11/07 02:42:43;;;;;;;0.00;0.00;;;10.30;99.90;;;;;;5053115;28;20185;-69
2022/11/07 02:45:13;;;;;;;0.00;0.00;;;10.30;99.90;;;;;;5052185;28;20185;-69
2022/11/07 02:47:39;;;;;;;0.00;0.00;;;10.30;99.90;;;;;;5052868;28;20606;-69
2022/11/07 02:50:13;;;;;;;0.00;0.00;;;10.30;99.90;;;;;;5053596;28;20213;-68
2022/11/07 02:52:38;;;;;;;0.00;0.00;;;10.40;99.90;;;;;;5048121;28;20209;-67
2022/11/07 02:55:06;;;;;;;0.00;0.00;;;10.40;99.90;;;;;;5051381;28;20208;-68
2022/11/07 02:57:31;;;;;;;0.00;0.00;;;10.40;99.90;;;;;;5052433;28;20270;-68
2022/11/07 02:59:57;;;;;;;0.35;0.17;;;10.50;99.90;;;;;;5051802;28;20502;-67
2022/11/07 03:02:23;;;;;;;0.00;0.00;;;10.50;99.90;;;;;;5052948;28;20170;-68
2022/11/07 03:04:49;;;;;;;0.00;0.00;;;10.50;99.90;;;;;;5053100;28;20189;-68
2022/11/07 03:07:15;;;;;;;0.00;0.00;;;10.50;99.90;;;;;;5052669;28;20253;-68
2022/11/07 03:09:40;;;;;;;0.00;0.00;;;10.50;99.90;;;;;;5052618;28;20243;-68
2022/11/07 03:12:06;;;;;;;0.17;0.17;;;10.60;99.90;;;;;;5052696;28;20407;-68
2022/11/07 03:14:31;;;;;;;0.00;0.00;;;10.60;99.90;;;;;;5052797;28;20315;-68
2022/11/07 03:16:57;;;;;;;0.00;0.00;;;10.60;99.90;;;;;;5053085;28;20190;-67
2022/11/07 03:19:23;;;;;;;0.05;0.05;;;10.60;99.90;;;;;;5052641;28;20182;-68
2022/11/07 03:21:49;;;;;;;0.00;0.00;;;10.60;99.90;;;;;;5052337;28;20212;-68
2022/11/07 03:24:15;;;;;;;0.00;0.00;;;10.50;99.90;;;;;;5052749;28;20184;-68
2022/11/07 03:26:41;;;;;;;0.00;0.00;;;10.50;99.90;;;;;;5052186;28;20588;-68
2022/11/07 03:29:06;;;;;;;0.00;0.00;;;10.50;99.90;;;;;;5052326;28;20183;-68
2022/11/07 03:31:32;;;;;;;0.00;0.00;;;10.50;99.90;;;;;;5052293;28;20619;-68
2022/11/07 03:33:57;;;;;;;0.00;0.00;;;10.50;99.90;;;;;;5052463;28;20181;-67
2022/11/07 03:36:23;;;;;;;0.00;0.00;;;10.40;99.90;;;;;;5052579;28;20173;-68
2022/11/07 03:38:48;;;;;;;0.00;0.00;;;10.40;99.90;;;;;;5052321;28;20185;-68
2022/11/07 03:41:16;;;;;;;0.00;0.00;;;10.40;99.90;;;;;;5052367;28;20212;-68
2022/11/07 03:43:44;;;;;;;0.05;0.05;;;10.40;99.90;;;;;;5051872;28;20165;-68
2022/11/07 03:46:10;;;;;;;0.15;0.15;;;10.30;99.90;;;;;;5052081;28;20319;-68
2022/11/07 03:48:36;;;;;;;0.00;0.00;;;10.30;99.90;;;;;;5052092;28;20513;-68
2022/11/07 03:51:01;;;;;;;0.00;0.00;;;10.30;99.90;;;;;;5051860;28;20223;-68
2022/11/07 03:53:27;;;;;;;0.00;0.00;;;10.30;99.90;;;;;;5051768;28;20579;-67
2022/11/07 03:55:54;;;;;;;0.00;0.00;;;10.30;99.90;;;;;;5051892;28;20196;-68
2022/11/07 03:58:19;;;;;;;0.00;0.00;;;10.30;99.90;;;;;;5051986;28;20659;-68
2022/11/07 04:00:45;;;;;;;0.00;0.00;;;10.30;99.90;;;;;;5046683;28;20186;-68
2022/11/07 04:03:10;;;;;;;0.00;0.00;;;10.30;99.90;;;;;;5045563;28;20177;-68
2022/11/07 04:05:36;;;;;;;0.00;0.00;;;10.30;99.90;;;;;;5052057;28;20196;-68
2022/11/07 04:08:03;;;;;;;0.17;0.17;;;10.40;99.90;;;;;;5050071;28;20223;-67
2022/11/07 04:10:28;;;;;;;0.10;0.10;;;10.40;99.90;;;;;;5051573;28;20177;-68
2022/11/07 04:18:24;;;;;;;0.20;0.20;;;10.40;99.90;;;;;;5051627;28;20666;-68
2022/11/07 04:20:49;;;;;;;0.00;0.00;;;10.40;99.90;;;;;;5051759;28;20256;-68
2022/11/07 04:23:15;;;;;;;0.00;0.00;;;10.40;99.90;;;;;;5051445;28;20307;-68
2022/11/07 04:28:24;;;;;;;0.00;0.00;;;10.40;99.90;;;;;;5051438;28;20212;-68
2022/11/07 04:30:50;;;;;;;0.00;0.00;;;10.40;99.90;;;;;;5051094;28;20799;-68
2022/11/07 04:33:15;;;;;;;0.00;0.00;;;10.50;99.90;;;;;;5051440;28;20173;-68
2022/11/07 04:35:41;;;;;;;0.00;0.00;;;10.50;99.90;;;;;;5051762;28;20181;-68
2022/11/07 04:38:06;;;;;;;0.00;0.00;;;10.50;99.90;;;;;;5051412;28;20188;-68
2022/11/07 04:40:32;;;;;;;0.00;0.00;;;10.50;99.90;;;;;;5051589;28;20264;-69
2022/11/07 04:42:58;;;;;;;0.00;0.00;;;10.50;99.90;;;;;;5050583;28;20181;-68
2022/11/07 04:45:23;;;;;;;0.00;0.00;;;10.50;99.90;;;;;;5051115;28;20185;-69
2022/11/07 04:47:49;;;;;;;0.00;0.00;;;10.50;99.90;;;;;;5048869;28;20688;-68
2022/11/07 04:50:16;;;;;;;0.00;0.00;;;10.50;99.90;;;;;;5050977;28;20850;-66
2022/11/07 04:52:42;;;;;;;0.00;0.00;;;10.40;99.90;;;;;;5051344;28;20249;-69
2022/11/07 04:55:14;;;;;;;0.00;0.00;;;10.40;99.90;;;;;;5051766;28;20201;-69
2022/11/07 04:57:40;;;;;;;0.00;0.00;;;10.40;99.90;;;;;;5052131;28;20295;-68
2022/11/07 05:00:06;;;;;;;0.00;0.00;;;10.30;99.90;;;;;;5051651;28;20264;-69
2022/11/07 05:02:32;;;;;;;0.00;0.00;;;10.30;99.90;;;;;;5051231;28;20177;-75
2022/11/07 05:04:57;;;;;;;0.00;0.00;;;10.30;99.90;;;;;;5050808;28;20527;-74
2022/11/07 05:07:23;;;;;;;0.00;0.00;;;10.20;99.90;;;;;;5052917;28;20692;-70
2022/11/07 05:09:48;;;;;;;0.00;0.00;;;10.20;99.90;;;;;;5055322;28;20185;-68
2022/11/07 05:12:14;;;;;;;0.00;0.00;;;10.10;99.90;;;;;;5053212;28;20223;-71
2022/11/07 05:14:39;;;;;;;0.08;0.03;;;10.10;99.90;;;;;;5055243;28;20184;-72
2022/11/07 05:17:05;;;;;;;0.25;0.25;;;10.10;99.90;;;;;;5055253;28;20265;-67
2022/11/07 05:19:30;;;;;;;0.00;0.00;;;10.10;99.90;;;;;;5054904;28;20625;-72
2022/11/07 05:24:40;;;;;;;0.00;0.00;;;10.10;99.90;;;;;;5055164;28;20291;-74
2022/11/07 05:27:05;;;;;;;0.00;0.00;;;10.10;99.90;;;;;;5055179;28;20177;-77
2022/11/07 05:29:32;;;;;;;0.00;0.00;;;10.10;99.90;;;;;;5055506;28;20176;-75
2022/11/07 05:31:57;;;;;;;0.00;0.00;;;10.10;99.90;;;;;;5054563;28;20680;-76
2022/11/07 05:34:23;;;;;;;0.00;0.00;;;10.00;99.90;;;;;;5055003;28;20198;-74
2022/11/07 05:36:48;;;;;;;0.00;0.00;;;10.00;99.90;;;;;;5054074;28;20177;-71
2022/11/07 05:39:14;;;;;;;0.05;0.05;;;10.10;99.90;;;;;;5054462;28;20200;-70
2022/11/07 05:41:39;;;;;;;0.00;0.00;;;10.00;99.90;;;;;;5054124;28;20230;-70
2022/11/07 05:44:05;;;;;;;0.00;0.00;;;10.00;99.90;;;;;;5054608;28;20177;-70
2022/11/07 05:46:30;;;;;;;0.00;0.00;;;10.00;99.90;;;;;;5054872;28;20185;-71
2022/11/07 05:48:56;;;;;;;0.00;0.00;;;10.00;99.90;;;;;;5054613;28;20182;-70
2022/11/07 05:51:22;;;;;;;0.00;0.00;;;9.90;99.90;;;;;;5054433;28;20224;-71
2022/11/07 05:53:47;;;;;;;0.00;0.00;;;9.90;99.90;;;;;;5054365;28;20178;-71
2022/11/07 05:56:12;;;;;;;0.00;0.00;;;9.90;99.90;;;;;;5054709;28;20169;-70
2022/11/07 05:58:38;;;;;;;0.00;0.00;;;9.90;99.90;;;;;;5054586;28;20643;-71
2022/11/07 06:01:05;;;;;;;0.00;0.00;;;9.80;99.90;;;;;;5054403;28;20185;-71
2022/11/07 06:03:31;;;;;;;0.00;0.00;;;9.80;99.90;;;;;;5054521;28;20185;-71
2022/11/07 06:05:57;;;;;;;0.17;0.17;;;9.80;99.90;;;;;;5054428;28;20547;-70
2022/11/07 06:08:23;;;;;;;0.00;0.00;;;9.80;99.90;;;;;;5054028;28;20386;-70
2022/11/07 06:10:48;;;;;;;0.00;0.00;;;9.80;99.90;;;;;;5053946;28;20185;-71
2022/11/07 06:13:15;;;;;;;0.00;0.00;;;9.80;99.90;;;;;;5054394;28;20177;-71
2022/11/07 06:15:43;;;;;;;0.10;0.10;;;9.80;99.90;;;;;;5053150;28;20177;-71
2022/11/07 06:18:17;;;;;;;0.05;0.05;;;9.90;99.90;;;;;;5054077;28;20192;-71
2022/11/07 06:20:43;;;;;;;0.00;0.00;;;9.80;99.90;;;;;;5054106;28;20239;-71
2022/11/07 06:23:09;;;;;;;0.00;0.00;;;9.80;99.90;;;;;;5054134;28;20173;-70
2022/11/07 06:25:35;;;;;;;0.00;0.00;;;9.90;99.90;;;;;;5052531;28;20235;-71
2022/11/07 06:28:11;;;;;;;0.00;0.00;;;9.80;99.90;;;;;;5054084;28;20204;-70
2022/11/07 06:30:37;;;;;;;0.10;0.10;;;9.90;99.90;;;;;;5054255;28;20180;-71
2022/11/07 06:33:10;;;;;;;0.00;0.00;;;9.90;99.90;;;;;;5053670;28;20190;-70
2022/11/07 06:35:36;;;;;;;0.00;0.00;;;9.90;99.90;;;;;;5054246;28;20181;-71
2022/11/07 06:38:04;;;;;;;0.20;0.20;;;9.90;99.90;;;;;;5052791;28;20173;-72
2022/11/07 06:40:29;;;;;;;0.55;0.50;;;9.90;99.90;;;;;;5053733;28;20188;-71
2022/11/07 06:42:55;;;;;;;0.08;0.08;;;10.00;99.90;;;;;;5054202;28;20189;-77
2022/11/07 06:45:21;;;;;;;0.10;0.10;;;10.00;99.90;;;;;;5053721;28;20176;-75
2022/11/07 06:47:46;;;;;;;0.10;0.10;;;10.00;99.90;;;;;;5054208;28;20219;-79
2022/11/07 06:50:12;;;;;;;0.10;0.10;;;10.00;99.90;;;;;;5053955;28;20216;-74
2022/11/07 06:52:38;;;;;;;0.10;0.10;;;10.00;99.90;;;;;;5053782;28;20247;-79
2022/11/07 06:55:03;;;;;;;0.00;0.00;;;10.00;99.90;;;;;;5053724;28;20188;-69
2022/11/07 06:57:29;;;;;;;0.10;0.10;;;10.00;99.90;;;;;;5052334;28;20518;-72
2022/11/07 06:59:55;;;;;;;0.00;0.00;;;10.00;99.90;;;;;;5053661;28;20185;-68
2022/11/07 07:02:20;;;;;;;0.00;0.00;;;10.00;99.90;;;;;;5053684;28;20189;-68
2022/11/07 07:04:47;;;;;;;0.00;0.00;;;10.10;99.90;;;;;;5053499;28;20671;-68
2022/11/07 07:07:13;;;;;;;0.00;0.00;;;10.10;99.90;;;;;;5053297;28;20225;-69
2022/11/07 07:09:38;;;;;;;0.10;0.10;;;10.10;99.90;;;;;;5053614;28;20181;-68
2022/11/07 07:12:04;;;;;;;0.00;0.00;;;10.10;99.90;;;;;;5051779;28;20213;-69
2022/11/07 07:14:30;;;;;;;0.00;0.00;;;10.20;99.90;;;;;;5053647;28;20200;-69
2022/11/07 07:16:57;;;;;;;0.00;0.00;;;10.20;99.90;;;;;;5053334;28;20544;-69
2022/11/07 07:19:23;;;;;;;0.00;0.00;;;10.20;99.90;;;;;;5053558;28;20177;-69
2022/11/07 07:21:48;;;;;;;0.00;0.00;;;10.20;99.90;;;;;;5053202;28;20571;-69
2022/11/07 07:24:14;;;;;;;0.10;0.10;;;10.20;99.90;;;;;;5053443;28;20174;-69
2022/11/07 07:26:39;;;;;;;0.00;0.00;;;10.30;99.90;;;;;;5053227;28;20220;-69
2022/11/07 07:29:05;;;;;;;0.00;0.00;;;10.30;99.90;;;;;;5032934;28;20174;-69
2022/11/07 07:31:31;;;;;;;0.57;0.57;;;10.40;99.90;;;;;;5054594;28;20212;-75
2022/11/07 07:33:57;;;;;;;0.00;0.00;;;10.40;99.90;;;;;;5054394;28;20244;-73
2022/11/07 07:36:23;;;;;;;0.00;0.00;;;10.50;99.90;;;;;;5052922;28;20608;-68
2022/11/07 07:38:50;;;;;;;0.00;0.00;;;10.60;99.90;;;;;;5053260;28;20181;-72
2022/11/07 07:41:16;;;;;;;0.00;0.00;;;10.70;99.90;;;;;;5051661;28;20182;-69
2022/11/07 07:43:42;;;;;;;0.00;0.00;;;10.80;99.90;;;;;;5052067;28;20428;-69
2022/11/07 07:46:10;;;;;;;0.08;0.08;;;10.90;99.90;;;;;;5052458;28;20179;-69
2022/11/07 07:48:35;;;;;;;0.00;0.00;;;11.00;99.90;;;;;;5053439;28;20182;-68
2022/11/07 07:51:01;;;;;;;0.30;0.30;;;11.10;99.90;;;;;;5051882;28;20240;-68
2022/11/07 07:53:26;;;;;;;0.00;0.00;;;11.30;99.90;;;;;;5053262;28;20204;-69
2022/11/07 07:55:59;;;;;;;0.00;0.00;;;11.40;99.90;;;;;;5053094;28;20663;-69
2022/11/07 07:58:25;;;;;;;0.35;0.35;;;11.50;99.90;;;;;;5052975;28;20223;-69
2022/11/07 08:00:57;;;;;;;0.00;0.00;;;11.50;99.90;;;;;;5053147;28;20209;-68
2022/11/07 08:03:24;;;;;;;0.08;0.08;;;11.50;99.90;;;;;;5052908;28;20178;-68
2022/11/07 08:05:57;;;;;;;0.00;0.00;;;11.50;99.90;;;;;;5052938;28;20648;-69
2022/11/07 08:08:23;;;;;;;0.00;0.00;;;11.60;99.90;;;;;;5052680;28;20237;-69
2022/11/07 08:10:53;;;;;;;0.00;0.00;;;11.60;99.90;;;;;;5052840;28;20260;-69
2022/11/07 08:13:22;;;;;;;0.00;0.00;;;11.70;99.90;;;;;;5052721;28;20204;-69
2022/11/07 08:15:48;;;;;;;0.03;0.03;;;11.70;99.90;;;;;;5052820;28;20205;-69
2022/11/07 08:18:14;;;;;;;0.00;0.00;;;11.80;99.90;;;;;;5052664;28;20579;-69
2022/11/07 08:20:40;;;;;;;0.00;0.00;;;11.80;99.90;;;;;;5052727;28;20192;-69
2022/11/07 08:23:08;;;;;;;0.00;0.00;;;11.80;99.90;;;;;;5052540;28;20170;-68
2022/11/07 08:25:33;;;;;;;0.00;0.00;;;11.90;99.90;;;;;;5052577;28;20182;-69
2022/11/07 08:27:59;;;;;;;0.00;0.00;;;12.00;99.90;;;;;;5052562;28;20503;-68
2022/11/07 08:30:30;;;;;;;0.10;0.10;;;12.10;99.90;;;;;;5052455;28;20260;-69
2022/11/07 08:32:58;;;;;;;0.00;0.00;;;12.10;99.90;;;;;;5052489;28;20220;-68
2022/11/07 08:35:24;;;;;;;0.00;0.00;;;12.20;99.90;;;;;;5052436;28;20259;-69
2022/11/07 08:37:52;;;;;;;0.22;0.22;;;12.40;99.90;;;;;;5052483;28;20224;-68
2022/11/07 08:40:18;;;;;;;0.30;0.20;;;12.40;99.90;;;;;;5052340;28;20526;-69
2022/11/07 08:42:43;;;;;;;0.00;0.00;;;12.50;99.90;;;;;;5051355;28;20252;-68
2022/11/07 08:45:09;;;;;;;0.38;0.38;;;12.60;99.90;;;;;;5052265;28;20242;-69
2022/11/07 08:47:35;;;;;;;0.43;0.43;;;12.70;99.90;;;;;;5052416;28;20251;-69
2022/11/07 08:50:00;;;;;;;0.00;0.00;;;12.80;99.90;;;;;;5052437;28;20539;-68
2022/11/07 08:52:26;;;;;;;0.00;0.00;;;12.90;99.90;;;;;;5052078;28;20217;-68
2022/11/07 08:54:51;;;;;;;0.00;0.00;;;12.90;99.90;;;;;;5052310;28;20173;-69
2022/11/07 08:57:17;;;;;;;0.10;0.10;;;13.00;99.90;;;;;;5052149;28;20177;-68
2022/11/07 08:59:42;;;;;;;0.05;0.05;;;13.20;99.90;;;;;;5052200;28;20181;-68
2022/11/07 09:02:10;;;;;;;0.00;0.00;;;13.30;99.90;;;;;;5052236;28;20227;-69
2022/11/07 09:04:36;;;;;;;0.00;0.00;;;13.50;99.90;;;;;;5052208;28;20173;-69
2022/11/07 09:07:01;;;;;;;0.43;0.15;;;13.60;99.90;;;;;;5051902;28;20259;-69
2022/11/07 09:09:27;;;;;;;0.00;0.00;;;13.70;99.90;;;;;;5052054;28;20177;-69
2022/11/07 09:11:53;;;;;;;0.00;0.00;;;13.70;99.90;;;;;;5052137;28;20572;-69
2022/11/07 09:14:18;;;;;;;0.00;0.00;;;13.80;99.90;;;;;;5051999;28;20629;-69
2022/11/07 09:16:44;;;;;;;0.00;0.00;;;13.90;99.90;;;;;;5052021;28;20645;-69
2022/11/07 09:19:10;;;;;;;0.20;0.10;;;14.00;99.90;;;;;;5051961;28;20275;-68
2022/11/07 09:21:35;;;;;;;0.00;0.00;;;14.00;99.90;;;;;;5052043;28;20170;-69
2022/11/07 09:24:01;;;;;;;0.00;0.00;;;14.00;99.90;;;;;;5051909;28;20251;-68
2022/11/07 09:26:26;;;;;;;0.00;0.00;;;14.00;99.90;;;;;;5051956;28;20177;-68
2022/11/07 09:28:52;;;;;;;0.00;0.00;;;13.90;99.90;;;;;;5051955;28;20252;-69
2022/11/07 09:31:18;;;;;;;0.00;0.00;;;14.00;99.90;;;;;;5051781;28;20262;-69
2022/11/07 09:33:43;;;;;;;0.00;0.00;;;14.00;99.90;;;;;;5051912;28;20177;-69
2022/11/07 09:36:11;;;;;;;0.00;0.00;;;14.00;99.90;;;;;;5051753;28;20170;-69
2022/11/07 09:38:36;;;;;;;0.00;0.00;;;14.00;99.90;;;;;;5051952;28;20189;-69
2022/11/07 09:41:27;;;;;;;0.00;0.00;;;14.10;99.90;;;;;;5051723;28;20181;-69
2022/11/07 09:44:11;;;;;;;0.00;0.00;;;14.10;99.90;;;;;;5051827;28;20543;-69
2022/11/07 09:47:04;;;;;;;0.00;0.00;;;14.20;99.90;;;;;;5051827;28;20177;-69
2022/11/07 09:49:45;;;;;;;0.00;0.00;;;14.20;99.90;;;;;;5051950;28;20263;-69
2022/11/07 09:52:34;;;;;;;0.00;0.00;;;14.30;99.90;;;;;;5051588;28;20225;-68
2022/11/07 09:55:22;;;;;;;0.10;0.10;;;14.30;99.90;;;;;;5055500;28;20170;-68
2022/11/07 09:57:49;;;;;;;0.00;0.00;;;14.30;99.90;;;;;;5055140;28;20194;-68
2022/11/07 10:00:16;;;;;;;0.00;0.00;;;14.30;99.90;;;;;;5055320;28;20170;-68
2022/11/07 10:02:45;;;;;;;0.00;0.00;;;14.30;99.90;;;;;;5053996;28;20185;-69
2022/11/07 10:05:36;;;;;;;0.00;0.00;;;14.30;99.90;;;;;;5054935;28;20189;-68
2022/11/07 10:08:05;;;;;;;0.00;0.00;;;14.30;99.90;;;;;;5053688;28;20232;-68
2022/11/07 10:10:47;;;;;;;0.00;0.00;;;14.40;99.90;;;;;;5055191;28;20535;-68
2022/11/07 10:13:32;;;;;;;0.00;0.00;;;14.50;99.90;;;;;;5055084;28;20231;-69
2022/11/07 10:16:03;;;;;;;0.00;0.00;;;14.50;99.90;;;;;;5055020;28;20659;-68
2022/11/07 10:18:51;;;;;;;0.00;0.00;;;14.60;99.90;;;;;;5055118;28;20184;-68
2022/11/07 10:21:28;;;;;;;0.00;0.00;;;14.60;99.90;;;;;;5054896;28;20227;-68
2022/11/07 10:24:14;;;;;;;0.00;0.00;;;14.60;99.90;;;;;;5054847;28;20714;-69
2022/11/07 10:26:42;;;;;;;0.00;0.00;;;14.60;99.90;;;;;;5054901;28;20710;-69
2022/11/07 10:29:15;;;;;;;0.00;0.00;;;14.50;99.90;;;;;;5054495;28;20211;-69
2022/11/07 10:31:47;;;;;;;0.00;0.00;;;14.40;99.90;;;;;;5054623;28;20212;-69
2022/11/07 10:34:30;;;;;;;0.00;0.00;;;14.30;99.90;;;;;;5054624;28;20193;-68
2022/11/07 10:36:55;;;;;;;0.00;0.00;;;14.30;99.90;;;;;;5054658;28;20173;-69
2022/11/07 10:39:21;;;;;;;0.00;0.00;;;14.30;99.90;;;;;;5054554;28;20708;-68
2022/11/07 10:42:08;;;;;;;0.00;0.00;;;14.20;99.90;;;;;;5054514;28;20178;-68
2022/11/07 10:44:34;;;;;;;0.00;0.00;;;14.20;99.90;;;;;;5054521;28;20508;-69
2022/11/07 10:47:02;;;;;;;0.00;0.00;;;14.20;99.90;;;;;;5054387;28;20181;-69
2022/11/07 10:49:30;;;;;;;0.00;0.00;;;14.30;99.90;;;;;;5054281;28;20272;-68
2022/11/07 10:52:16;;;;;;;0.00;0.00;;;14.30;99.90;;;;;;5054241;28;20217;-68
2022/11/07 10:54:43;;;;;;;0.00;0.00;;;14.40;99.90;;;;;;5054232;28;20357;-68
2022/11/07 10:57:11;;;;;;;0.00;0.00;;;14.40;99.90;;;;;;5053976;28;20184;-69
2022/11/07 10:59:39;;;;;;;0.00;0.00;;;14.40;99.90;;;;;;5054216;28;20580;-68
2022/11/07 11:02:30;;;;;;;0.00;0.00;;;14.40;99.90;;;;;;5054276;28;20576;-69
2022/11/07 11:04:57;;;;;;;0.00;0.00;;;14.40;99.90;;;;;;5052599;28;20185;-68
2022/11/07 11:07:35;;;;;;;0.00;0.00;;;14.40;99.90;;;;;;5052620;28;20362;-69
2022/11/07 11:10:01;;;;;;;0.00;0.00;;;14.40;99.90;;;;;;5053922;28;20184;-68
2022/11/07 11:12:32;;;;;;;0.00;0.00;;;14.40;99.90;;;;;;5053576;28;20220;-68
2022/11/07 11:15:10;;;;;;;0.00;0.00;;;14.40;99.90;;;;;;5053924;28;20174;-68
2022/11/07 11:17:36;;;;;;;0.00;0.00;;;14.40;99.90;;;;;;5053792;28;20205;-70
2022/11/07 11:20:03;;;;;;;0.00;0.00;;;14.40;99.90;;;;;;5053965;28;20664;-68
2022/11/07 11:22:28;;;;;;;0.00;0.00;;;14.40;99.90;;;;;;5053628;28;20185;-70
2022/11/07 11:25:10;;;;;;;0.00;0.00;;;14.40;99.90;;;;;;5053701;28;20640;-69
2022/11/07 11:27:38;;;;;;;0.00;0.00;;;14.40;99.90;;;;;;5053668;28;20224;-69
2022/11/07 11:30:12;;;;;;;0.10;0.10;;;14.40;99.90;;;;;;5052275;28;20170;-69
2022/11/07 11:33:00;;;;;;;0.00;0.00;;;14.40;99.90;;;;;;5053523;28;20217;-69
2022/11/07 11:35:48;;;;;;;0.00;0.00;;;14.50;99.90;;;;;;5053528;28;20173;-69
2022/11/07 11:38:26;;;;;;;0.00;0.00;;;14.50;99.90;;;;;;5052121;28;20534;-69
2022/11/07 11:40:56;;;;;;;0.00;0.00;;;14.60;99.90;;;;;;5053771;28;20219;-70
2022/11/07 11:43:25;;;;;;;0.00;0.00;;;14.60;99.90;;;;;;5053430;28;20177;-69
2022/11/07 11:46:13;;;;;;;0.00;0.00;;;14.50;99.90;;;;;;5053275;28;20706;-69
2022/11/07 11:48:52;;;;;;;0.00;0.00;;;14.60;99.90;;;;;;5053379;28;20181;-69
2022/11/07 11:51:36;;;;;;;0.00;0.00;;;14.70;99.90;;;;;;5053087;28;20212;-69
2022/11/07 11:54:02;;;;;;;0.00;0.00;;;14.70;99.90;;;;;;5053020;28;20533;-69
2022/11/07 11:56:41;;;;;;;0.00;0.00;;;14.70;99.90;;;;;;5051708;28;20184;-69
2022/11/07 11:59:31;;;;;;;0.10;0.10;;;14.80;99.90;;;;;;5052915;28;20173;-69
2022/11/07 12:02:34;;;;;;;0.00;0.00;;;14.80;99.90;;;;;;5053013;28;20185;-68
2022/11/07 12:05:28;;;;;;;0.00;0.00;;;14.80;99.90;;;;;;5051461;28;20188;-68
2022/11/07 12:08:20;;;;;;;0.00;0.00;;;14.80;99.90;;;;;;5052019;28;20221;-69
2022/11/07 12:11:02;;;;;;;0.00;0.00;;;14.90;99.90;;;;;;5052814;28;20666;-69
2022/11/07 12:13:36;;;;;;;0.00;0.00;;;15.00;99.90;;;;;;5052837;28;20227;-69
2022/11/07 12:16:37;;;;;;;0.00;0.00;;;15.10;99.90;;;;;;5052621;28;20176;-68
2022/11/07 12:19:26;;;;;;;0.00;0.00;;;15.20;99.90;;;;;;5051760;28;20726;-68
2022/11/07 12:22:43;;;;;;;0.00;0.00;;;15.30;99.90;;;;;;5048442;28;20221;-69
2022/11/07 12:25:19;;;;;;;0.00;0.00;;;15.20;99.90;;;;;;5051116;28;20549;-69
2022/11/07 12:28:27;;;;;;;0.00;0.00;;;15.10;99.90;;;;;;5052480;28;20687;-69
2022/11/07 12:31:12;;;;;;;0.00;0.00;;;15.00;99.90;;;;;;5051668;28;20185;-69
2022/11/07 12:33:49;;;;;;;0.00;0.00;;;15.00;99.90;;;;;;5052574;28;20264;-69
2022/11/07 12:36:14;;;;;;;1.05;1.05;;;15.00;99.90;;;;;;5052356;28;20195;-69
2022/11/07 12:39:20;;;;;;;0.10;0.10;;;15.00;99.90;;;;;;5052431;28;20649;-69
2022/11/07 12:42:05;;;;;;;0.00;0.00;;;15.10;99.90;;;;;;5041089;28;20200;-69
2022/11/07 12:44:55;;;;;;;0.00;0.00;;;15.10;99.90;;;;;;5052409;28;20516;-69
2022/11/07 12:47:47;;;;;;;0.00;0.00;;;15.20;99.90;;;;;;5052395;28;20585;-69
2022/11/07 12:50:13;;;;;;;0.00;0.00;;;15.20;99.90;;;;;;5052276;28;20174;-69
2022/11/07 12:53:01;;;;;;;0.00;0.00;;;15.10;99.90;;;;;;5052228;28;20217;-69
2022/11/07 12:55:39;;;;;;;0.22;0.22;;;15.10;99.90;;;;;;5052224;28;20675;-69
2022/11/07 12:58:17;;;;;;;0.00;0.00;;;15.10;99.90;;;;;;5050847;28;20288;-68
2022/11/07 13:00:43;;;;;;;0.00;0.00;;;15.00;99.90;;;;;;5052351;28;20293;-69
2022/11/07 13:03:30;;;;;;;0.00;0.00;;;15.00;99.90;;;;;;5052057;28;20170;-69
2022/11/07 13:06:17;;;;;;;0.00;0.00;;;14.90;99.90;;;;;;5052222;28;20177;-69
2022/11/07 13:09:23;;;;;;;0.00;0.00;;;14.90;99.90;;;;;;5052046;28;20221;-69
2022/11/07 13:12:09;;;;;;;0.00;0.00;;;15.00;99.90;;;;;;5052056;28;20243;-69
2022/11/07 13:14:40;;;;;;;0.00;0.00;;;15.20;99.90;;;;;;5052052;28;20690;-69